Time;durP1;ratioP1;P1;durP2;ratioP2;P2;SDS_P1;SDS_P2;PMS_P1;PMS_P2;Temp;Humidity;BMP_temperature;BMP_pressure;BME280_temperature;BME280_humidity;BME280_pressure;Samples;Min_cycle;Max_cycle;Signal;HPM_P1;HPM_P2
2021/07/23 00:00:54;;;;;;;13.70;10.88;;;;;;;;;;4931632;29;20048;-76
2021/07/23 00:03:21;;;;;;;14.00;10.23;;;;;;;;;;4918092;29;20455;-76
2021/07/23 00:05:48;;;;;;;15.95;11.25;;;;;;;;;;4918048;29;20146;-76
2021/07/23 00:08:15;;;;;;;14.23;10.75;;;;;;;;;;4918069;29;20569;-76
2021/07/23 00:10:43;;;;;;;14.50;11.48;;;;;;;;;;4918321;29;20052;-76
2021/07/23 00:13:11;;;;;;;15.87;11.17;;;;;;;;;;4933721;29;20410;-76
2021/07/23 00:15:38;;;;;;;16.15;11.25;;;;;;;;;;4936795;29;20290;-76
2021/07/23 00:18:05;;;;;;;14.68;11.88;;;;;;;;;;4937186;29;20063;-76
2021/07/23 00:20:32;;;;;;;16.23;11.88;;;;;;;;;;4937499;29;20043;-76
2021/07/23 00:22:59;;;;;;;16.65;13.23;;;;;;;;;;4936913;29;20509;-76
2021/07/23 00:25:25;;;;;;;17.10;13.23;;;;;;;;;;4936937;29;20055;-77
2021/07/23 00:27:53;;;;;;;22.08;16.52;;;;;;;;;;4936666;29;20043;-75
2021/07/23 00:30:21;;;;;;;18.42;14.80;;;;;;;;;;4937050;29;20047;-75
2021/07/23 00:32:47;;;;;;;16.38;13.32;;;;;;;;;;4936567;29;20060;-75
2021/07/23 00:35:14;;;;;;;17.95;12.60;;;;;;;;;;4936720;29;20044;-75
2021/07/23 00:37:41;;;;;;;23.15;13.52;;;;;;;;;;4936681;29;20055;-77
2021/07/23 00:40:08;;;;;;;16.63;12.70;;;;;;;;;;4936916;29;20048;-77
2021/07/23 00:42:36;;;;;;;17.50;13.23;;;;;;;;;;4936637;29;20051;-77
2021/07/23 00:45:06;;;;;;;16.23;11.98;;;;;;;;;;4936474;29;20074;-76
2021/07/23 00:47:33;;;;;;;16.77;13.03;;;;;;;;;;4936531;29;20131;-76
2021/07/23 00:50:00;;;;;;;16.00;12.45;;;;;;;;;;4936598;29;20335;-76
2021/07/23 00:52:28;;;;;;;16.45;12.15;;;;;;;;;;4936610;29;20047;-75
2021/07/23 00:54:55;;;;;;;16.30;13.00;;;;;;;;;;4936619;29;20510;-76
2021/07/23 00:57:21;;;;;;;17.52;12.88;;;;;;;;;;4936340;29;20051;-75
2021/07/23 00:59:49;;;;;;;18.50;14.20;;;;;;;;;;4949186;23;20638;-76
2021/07/23 01:02:17;;;;;;;19.08;13.68;;;;;;;;;;4956050;29;20051;-77
2021/07/23 01:04:44;;;;;;;17.55;12.95;;;;;;;;;;4955772;28;20044;-77
2021/07/23 01:07:13;;;;;;;19.10;14.00;;;;;;;;;;4955904;28;20051;-75
2021/07/23 01:09:40;;;;;;;16.52;13.50;;;;;;;;;;4955328;28;20047;-77
2021/07/23 01:12:09;;;;;;;18.23;13.80;;;;;;;;;;4955535;28;20468;-77
2021/07/23 01:14:38;;;;;;;17.93;13.40;;;;;;;;;;4955802;28;20134;-77
2021/07/23 01:17:05;;;;;;;20.20;12.85;;;;;;;;;;4956182;28;20354;-76
2021/07/23 01:19:38;;;;;;;18.40;13.93;;;;;;;;;;4955116;28;20051;-77
2021/07/23 01:22:07;;;;;;;18.83;13.40;;;;;;;;;;4955803;28;20051;-77
2021/07/23 01:24:36;;;;;;;17.63;13.10;;;;;;;;;;4955428;28;20051;-77
2021/07/23 01:27:04;;;;;;;20.15;14.40;;;;;;;;;;4955634;28;20051;-75
2021/07/23 01:29:30;;;;;;;18.08;13.73;;;;;;;;;;4955139;28;20180;-76
2021/07/23 01:31:57;;;;;;;19.35;13.80;;;;;;;;;;4955438;28;20047;-77
2021/07/23 01:34:24;;;;;;;21.20;14.70;;;;;;;;;;4954847;28;20508;-77
2021/07/23 01:36:50;;;;;;;19.65;14.52;;;;;;;;;;4955220;28;20106;-77
2021/07/23 01:39:18;;;;;;;20.60;15.00;;;;;;;;;;4954728;28;20493;-77
2021/07/23 01:41:46;;;;;;;17.90;13.73;;;;;;;;;;4955195;28;20082;-77
2021/07/23 01:44:13;;;;;;;18.67;13.90;;;;;;;;;;4955572;28;20102;-77
2021/07/23 01:46:57;;;;;;;18.98;14.65;;;;;;;;;;4954759;28;20055;-77
2021/07/23 01:49:26;;;;;;;18.23;14.30;;;;;;;;;;4954672;28;20051;-76
2021/07/23 01:51:53;;;;;;;19.73;14.82;;;;;;;;;;4954895;28;20055;-75
2021/07/23 01:54:20;;;;;;;20.08;15.13;;;;;;;;;;4954524;28;20456;-77
2021/07/23 01:56:48;;;;;;;21.08;14.98;;;;;;;;;;4954601;28;20051;-76
2021/07/23 01:59:15;;;;;;;20.00;14.35;;;;;;;;;;4954598;28;20054;-77
2021/07/23 02:01:42;;;;;;;18.10;14.48;;;;;;;;;;4954671;28;20051;-76
2021/07/23 02:04:08;;;;;;;21.48;15.63;;;;;;;;;;4954285;28;20537;-77
2021/07/23 02:06:35;;;;;;;20.67;14.85;;;;;;;;;;4954176;28;20071;-77
2021/07/23 02:09:02;;;;;;;21.15;15.75;;;;;;;;;;4954673;28;20138;-77
2021/07/23 02:11:30;;;;;;;23.88;15.55;;;;;;;;;;4954406;28;20409;-77
2021/07/23 02:14:00;;;;;;;23.30;16.10;;;;;;;;;;4954192;28;20474;-77
2021/07/23 02:16:26;;;;;;;20.55;15.52;;;;;;;;;;4954085;28;20568;-77
2021/07/23 02:18:53;;;;;;;21.05;16.08;;;;;;;;;;4954395;28;20096;-77
2021/07/23 02:21:20;;;;;;;23.52;15.07;;;;;;;;;;4954153;28;20568;-77
2021/07/23 02:23:47;;;;;;;22.58;16.13;;;;;;;;;;4954163;28;20106;-77
2021/07/23 02:26:18;;;;;;;22.92;15.93;;;;;;;;;;4953970;28;20452;-78
2021/07/23 02:28:45;;;;;;;20.02;14.40;;;;;;;;;;4954052;28;20083;-76
2021/07/23 02:31:13;;;;;;;22.90;17.40;;;;;;;;;;4954208;28;20059;-77
2021/07/23 02:33:42;;;;;;;21.10;16.13;;;;;;;;;;4954385;28;20051;-77
2021/07/23 02:36:09;;;;;;;18.60;15.30;;;;;;;;;;4954187;28;20523;-76
2021/07/23 02:38:36;;;;;;;21.73;15.23;;;;;;;;;;4954104;28;20054;-76
2021/07/23 02:41:03;;;;;;;20.33;15.48;;;;;;;;;;4954577;28;20058;-76
2021/07/23 02:43:29;;;;;;;22.00;15.52;;;;;;;;;;4953880;28;20086;-76
2021/07/23 02:45:56;;;;;;;19.90;15.30;;;;;;;;;;4954173;28;20047;-77
2021/07/23 02:48:25;;;;;;;21.95;15.73;;;;;;;;;;4955590;28;20047;-75
2021/07/23 02:50:54;;;;;;;21.75;16.75;;;;;;;;;;4954279;28;20465;-76
2021/07/23 02:53:21;;;;;;;20.23;15.20;;;;;;;;;;4954291;28;20078;-76
2021/07/23 02:55:51;;;;;;;21.38;14.57;;;;;;;;;;4953762;28;20047;-76
2021/07/23 02:58:18;;;;;;;21.30;16.15;;;;;;;;;;4957968;28;20057;-76
2021/07/23 03:00:45;;;;;;;23.00;16.63;;;;;;;;;;4957725;28;20055;-77
2021/07/23 03:03:12;;;;;;;19.95;15.00;;;;;;;;;;4957938;28;20058;-76
2021/07/23 03:05:43;;;;;;;22.80;16.55;;;;;;;;;;4957476;28;20051;-76
2021/07/23 03:08:09;;;;;;;20.73;16.20;;;;;;;;;;4958128;28;20051;-76
2021/07/23 03:10:36;;;;;;;21.13;16.15;;;;;;;;;;4957484;28;20417;-76
2021/07/23 03:13:03;;;;;;;23.88;16.75;;;;;;;;;;4957695;28;20106;-76
2021/07/23 03:15:30;;;;;;;21.35;16.73;;;;;;;;;;4957207;29;20055;-76
2021/07/23 03:17:56;;;;;;;20.92;17.38;;;;;;;;;;4957505;28;20055;-76
2021/07/23 03:20:24;;;;;;;24.35;16.17;;;;;;;;;;4957197;28;20449;-77
2021/07/23 03:22:52;;;;;;;22.02;16.38;;;;;;;;;;4957532;29;20098;-76
2021/07/23 03:25:19;;;;;;;25.00;15.85;;;;;;;;;;4957380;29;20090;-76
2021/07/23 03:27:46;;;;;;;24.05;16.30;;;;;;;;;;4957295;29;20489;-76
2021/07/23 03:30:14;;;;;;;20.38;15.13;;;;;;;;;;4957368;28;20051;-75
2021/07/23 03:32:40;;;;;;;21.45;15.27;;;;;;;;;;4957978;29;20067;-75
2021/07/23 03:35:10;;;;;;;22.98;17.23;;;;;;;;;;4958032;29;20043;-76
2021/07/23 03:37:37;;;;;;;22.55;16.50;;;;;;;;;;4957604;28;20150;-75
2021/07/23 03:40:07;;;;;;;22.40;15.73;;;;;;;;;;4957250;28;20099;-78
2021/07/23 03:42:35;;;;;;;20.45;15.00;;;;;;;;;;4957327;29;20055;-77
2021/07/23 03:45:02;;;;;;;25.02;16.85;;;;;;;;;;4956864;28;20086;-76
2021/07/23 03:47:28;;;;;;;22.27;17.05;;;;;;;;;;4956621;29;20497;-76
2021/07/23 03:49:55;;;;;;;25.20;17.42;;;;;;;;;;4956705;28;20421;-76
2021/07/23 03:52:22;;;;;;;20.23;16.10;;;;;;;;;;4956675;29;20137;-77
2021/07/23 03:54:49;;;;;;;23.55;16.85;;;;;;;;;;4956800;28;20110;-77
2021/07/23 03:57:17;;;;;;;24.15;16.98;;;;;;;;;;4957014;29;20043;-77
2021/07/23 03:59:44;;;;;;;21.45;14.90;;;;;;;;;;4956660;28;20183;-77
2021/07/23 04:02:10;;;;;;;19.45;14.95;;;;;;;;;;4956454;29;20054;-77
2021/07/23 04:04:38;;;;;;;19.23;14.20;;;;;;;;;;4956195;28;20098;-77
2021/07/23 04:07:06;;;;;;;20.80;14.13;;;;;;;;;;4956805;28;20057;-78
2021/07/23 04:09:33;;;;;;;21.40;14.77;;;;;;;;;;4955774;28;20047;-77
2021/07/23 04:12:00;;;;;;;22.15;14.70;;;;;;;;;;4956620;28;20567;-77
2021/07/23 04:14:28;;;;;;;20.63;14.73;;;;;;;;;;4956823;28;20136;-77
2021/07/23 04:16:55;;;;;;;18.92;14.25;;;;;;;;;;4955935;28;20047;-77
2021/07/23 04:19:22;;;;;;;20.88;13.75;;;;;;;;;;4955639;28;20051;-77
2021/07/23 04:21:48;;;;;;;23.17;16.30;;;;;;;;;;4955585;28;20495;-77
2021/07/23 04:24:15;;;;;;;19.30;13.95;;;;;;;;;;4955583;28;20106;-77
2021/07/23 04:26:42;;;;;;;19.90;13.55;;;;;;;;;;4954873;28;20528;-76
2021/07/23 04:29:08;;;;;;;19.17;13.80;;;;;;;;;;4955586;28;20047;-76
2021/07/23 04:31:36;;;;;;;21.27;14.60;;;;;;;;;;4956211;28;20051;-77
2021/07/23 04:34:03;;;;;;;19.77;13.82;;;;;;;;;;4956087;28;20134;-76
2021/07/23 04:36:30;;;;;;;18.27;14.02;;;;;;;;;;4955903;28;20078;-76
2021/07/23 04:38:57;;;;;;;18.45;13.13;;;;;;;;;;4955991;28;20102;-77
2021/07/23 04:41:23;;;;;;;18.88;13.13;;;;;;;;;;4956042;28;20059;-76
2021/07/23 04:43:50;;;;;;;21.73;13.93;;;;;;;;;;4956295;28;20043;-77
2021/07/23 04:46:17;;;;;;;19.15;13.63;;;;;;;;;;4955862;28;20051;-77
2021/07/23 04:48:45;;;;;;;22.00;13.38;;;;;;;;;;4955914;28;20043;-76
2021/07/23 04:51:14;;;;;;;20.40;14.25;;;;;;;;;;4955817;28;20071;-76
2021/07/23 04:53:41;;;;;;;21.97;14.97;;;;;;;;;;4955785;28;20473;-76
2021/07/23 04:56:08;;;;;;;18.60;13.88;;;;;;;;;;4955495;28;20043;-77
2021/07/23 04:58:34;;;;;;;18.77;13.38;;;;;;;;;;4955656;28;20055;-77
2021/07/23 05:01:01;;;;;;;19.00;13.88;;;;;;;;;;4955405;28;20051;-76
2021/07/23 05:03:35;;;;;;;21.02;14.02;;;;;;;;;;4957377;28;20074;-77
2021/07/23 05:06:05;;;;;;;20.50;13.75;;;;;;;;;;4954975;28;20694;-77
2021/07/23 05:08:31;;;;;;;19.80;15.00;;;;;;;;;;4955687;28;20051;-77
2021/07/23 05:10:58;;;;;;;20.02;15.07;;;;;;;;;;4955169;28;20567;-77
2021/07/23 05:13:25;;;;;;;18.90;13.93;;;;;;;;;;4955307;28;20102;-77
2021/07/23 05:15:53;;;;;;;22.67;14.70;;;;;;;;;;4954963;28;20047;-77
2021/07/23 05:18:21;;;;;;;21.98;15.02;;;;;;;;;;4955252;28;20223;-77
2021/07/23 05:20:48;;;;;;;20.83;15.32;;;;;;;;;;4954097;28;20481;-77
2021/07/23 05:23:17;;;;;;;23.58;14.75;;;;;;;;;;4955308;29;20047;-77
2021/07/23 05:25:43;;;;;;;20.98;14.68;;;;;;;;;;4955012;29;20098;-77
2021/07/23 05:28:10;;;;;;;21.52;14.13;;;;;;;;;;4955359;28;20043;-75
2021/07/23 05:30:37;;;;;;;21.50;15.43;;;;;;;;;;4954901;28;20087;-76
2021/07/23 05:33:04;;;;;;;21.75;14.13;;;;;;;;;;4955253;29;20043;-76
2021/07/23 05:35:30;;;;;;;21.45;15.38;;;;;;;;;;4954949;29;20122;-77
2021/07/23 05:37:57;;;;;;;21.73;14.82;;;;;;;;;;4955306;29;20051;-77
2021/07/23 05:40:25;;;;;;;21.48;15.23;;;;;;;;;;4954909;29;20055;-77
2021/07/23 05:42:53;;;;;;;19.13;15.25;;;;;;;;;;4955311;28;20047;-77
2021/07/23 05:45:20;;;;;;;21.90;14.57;;;;;;;;;;4954868;29;20047;-77
2021/07/23 05:47:47;;;;;;;21.13;14.30;;;;;;;;;;4955100;29;20050;-77
2021/07/23 05:50:14;;;;;;;20.35;13.50;;;;;;;;;;4954666;29;20043;-77
2021/07/23 05:52:40;;;;;;;21.13;14.82;;;;;;;;;;4954653;29;20047;-78
2021/07/23 05:55:08;;;;;;;20.80;13.57;;;;;;;;;;4954466;29;20051;-77
2021/07/23 05:57:36;;;;;;;19.77;14.48;;;;;;;;;;4954655;29;20126;-77
2021/07/23 06:00:04;;;;;;;23.33;15.20;;;;;;;;;;4954565;29;20534;-77
2021/07/23 06:02:31;;;;;;;19.83;14.52;;;;;;;;;;4954623;29;20107;-77
2021/07/23 06:04:58;;;;;;;19.67;14.30;;;;;;;;;;4954489;29;20555;-77
2021/07/23 06:07:24;;;;;;;20.58;14.73;;;;;;;;;;4954526;29;20166;-77
2021/07/23 06:09:51;;;;;;;23.60;15.48;;;;;;;;;;4954287;29;20047;-77
2021/07/23 06:12:18;;;;;;;20.88;14.35;;;;;;;;;;4954464;29;20047;-77
2021/07/23 06:14:46;;;;;;;20.85;15.30;;;;;;;;;;4954303;29;20572;-77
2021/07/23 06:17:13;;;;;;;19.65;14.07;;;;;;;;;;4954426;29;20110;-77
2021/07/23 06:19:39;;;;;;;23.10;14.63;;;;;;;;;;4954504;29;20047;-77
2021/07/23 06:22:06;;;;;;;25.70;15.85;;;;;;;;;;4954641;29;20059;-77
2021/07/23 06:24:34;;;;;;;24.48;15.30;;;;;;;;;;4954291;29;20509;-77
2021/07/23 06:27:00;;;;;;;20.75;15.55;;;;;;;;;;4957081;29;20051;-76
2021/07/23 06:29:27;;;;;;;22.05;15.60;;;;;;;;;;4957357;29;20489;-76
2021/07/23 06:31:59;;;;;;;22.70;15.68;;;;;;;;;;4956290;28;20114;-75
2021/07/23 06:34:25;;;;;;;21.05;15.10;;;;;;;;;;4954544;29;20047;-76
2021/07/23 06:36:52;;;;;;;20.25;15.38;;;;;;;;;;4954317;28;20078;-77
2021/07/23 06:39:19;;;;;;;21.38;14.38;;;;;;;;;;4954142;29;20055;-77
2021/07/23 06:41:45;;;;;;;22.92;15.73;;;;;;;;;;4954439;29;20059;-77
2021/07/23 06:44:13;;;;;;;23.65;15.68;;;;;;;;;;4954481;29;20048;-77
2021/07/23 06:46:39;;;;;;;19.30;14.40;;;;;;;;;;4953852;28;20134;-77
2021/07/23 06:49:08;;;;;;;24.50;16.15;;;;;;;;;;4954175;28;20043;-78
2021/07/23 06:51:34;;;;;;;22.10;15.55;;;;;;;;;;4953645;29;20047;-77
2021/07/23 06:54:01;;;;;;;22.13;15.45;;;;;;;;;;4954171;29;20043;-77
2021/07/23 06:56:28;;;;;;;21.15;15.82;;;;;;;;;;4953624;29;20107;-77
2021/07/23 06:58:54;;;;;;;21.08;15.50;;;;;;;;;;4954813;28;20464;-78
2021/07/23 07:01:21;;;;;;;23.92;15.73;;;;;;;;;;4964329;23;20083;-76
2021/07/23 07:03:48;;;;;;;22.73;15.82;;;;;;;;;;4954527;29;20051;-77
2021/07/23 07:06:16;;;;;;;24.90;16.13;;;;;;;;;;4953370;29;20043;-76
2021/07/23 07:08:42;;;;;;;23.70;14.85;;;;;;;;;;4967682;28;20121;-76
2021/07/23 07:11:09;;;;;;;21.70;14.68;;;;;;;;;;4962837;28;20612;-76
2021/07/23 07:13:36;;;;;;;22.45;16.65;;;;;;;;;;4933787;29;20048;-76
2021/07/23 07:16:03;;;;;;;25.67;17.13;;;;;;;;;;4933147;29;20048;-76
2021/07/23 07:18:30;;;;;;;21.50;15.70;;;;;;;;;;4934431;29;20051;-77
2021/07/23 07:20:57;;;;;;;23.83;16.48;;;;;;;;;;4933501;29;20146;-76
2021/07/23 07:23:25;;;;;;;22.58;16.30;;;;;;;;;;4933691;29;20051;-76
2021/07/23 07:25:52;;;;;;;22.45;15.82;;;;;;;;;;4932857;29;20044;-76
2021/07/23 07:28:18;;;;;;;24.17;16.02;;;;;;;;;;4933665;29;20048;-76
2021/07/23 07:30:47;;;;;;;23.55;16.17;;;;;;;;;;4934255;29;20517;-75
2021/07/23 07:33:14;;;;;;;22.38;16.05;;;;;;;;;;4933718;29;20130;-75
2021/07/23 07:35:43;;;;;;;22.42;16.13;;;;;;;;;;4933031;29;20056;-76
2021/07/23 07:38:10;;;;;;;21.40;16.15;;;;;;;;;;4932967;29;20138;-75
2021/07/23 07:40:40;;;;;;;27.05;16.70;;;;;;;;;;4932849;29;20051;-75
2021/07/23 07:43:07;;;;;;;23.15;18.50;;;;;;;;;;4933572;29;20670;-75
2021/07/23 07:45:33;;;;;;;24.15;16.35;;;;;;;;;;4935496;29;20048;-75
2021/07/23 07:48:00;;;;;;;20.83;16.42;;;;;;;;;;4936343;29;20071;-75
2021/07/23 07:50:27;;;;;;;27.67;17.15;;;;;;;;;;4936399;29;20058;-77
2021/07/23 07:52:54;;;;;;;25.75;16.25;;;;;;;;;;4936701;29;20673;-77
2021/07/23 07:55:21;;;;;;;20.88;15.70;;;;;;;;;;4935916;29;20453;-76
2021/07/23 07:57:49;;;;;;;22.52;15.63;;;;;;;;;;4936503;29;20099;-77
2021/07/23 08:00:16;;;;;;;22.95;14.80;;;;;;;;;;4936032;29;20048;-76
2021/07/23 08:02:46;;;;;;;21.67;15.68;;;;;;;;;;4954818;28;20106;-76
2021/07/23 08:05:14;;;;;;;24.73;15.98;;;;;;;;;;4955838;28;20098;-76
2021/07/23 08:07:41;;;;;;;23.63;16.05;;;;;;;;;;4956284;28;20051;-77
2021/07/23 08:10:13;;;;;;;20.52;14.55;;;;;;;;;;4955418;28;20492;-76
2021/07/23 08:12:40;;;;;;;22.30;17.13;;;;;;;;;;4955018;28;20054;-77
2021/07/23 08:15:09;;;;;;;18.15;14.13;;;;;;;;;;4954337;28;20106;-76
2021/07/23 08:17:36;;;;;;;23.90;16.97;;;;;;;;;;4955953;28;20051;-75
2021/07/23 08:20:03;;;;;;;21.83;13.82;;;;;;;;;;4955078;28;20111;-75
2021/07/23 08:22:30;;;;;;;22.15;15.25;;;;;;;;;;4955575;28;20701;-75
2021/07/23 08:24:57;;;;;;;23.35;16.15;;;;;;;;;;4956040;28;20047;-76
2021/07/23 08:27:23;;;;;;;19.75;14.40;;;;;;;;;;4956212;28;20129;-76
2021/07/23 08:29:50;;;;;;;23.58;15.50;;;;;;;;;;4954494;28;20106;-76
2021/07/23 08:32:18;;;;;;;20.33;14.07;;;;;;;;;;4954426;28;20058;-76
2021/07/23 08:34:46;;;;;;;21.52;13.55;;;;;;;;;;4953986;28;20066;-76
2021/07/23 08:37:12;;;;;;;20.55;14.27;;;;;;;;;;4954313;28;20541;-76
2021/07/23 08:39:41;;;;;;;26.13;15.38;;;;;;;;;;4953952;28;20412;-76
2021/07/23 08:42:24;;;;;;;28.90;16.15;;;;;;;;;;4955833;28;20051;-76
2021/07/23 08:44:51;;;;;;;21.25;14.70;;;;;;;;;;4954999;28;20057;-76
2021/07/23 08:47:19;;;;;;;22.10;14.90;;;;;;;;;;4956452;28;20063;-76
2021/07/23 08:49:46;;;;;;;21.83;15.43;;;;;;;;;;4954987;28;20047;-76
2021/07/23 08:52:13;;;;;;;18.05;13.63;;;;;;;;;;4955082;28;20110;-76
2021/07/23 08:54:40;;;;;;;16.60;12.45;;;;;;;;;;4954538;28;20047;-76
2021/07/23 08:57:08;;;;;;;17.08;11.93;;;;;;;;;;4955207;28;20056;-76
2021/07/23 08:59:36;;;;;;;17.77;13.27;;;;;;;;;;4955718;28;20051;-76
2021/07/23 09:02:05;;;;;;;19.38;12.57;;;;;;;;;;4954556;28;20544;-76
2021/07/23 09:04:35;;;;;;;17.73;13.00;;;;;;;;;;4955045;28;20102;-75
2021/07/23 09:07:20;;;;;;;;;;;;;;;;;;4954666;28;20055;-76
2021/07/23 09:09:54;;;;;;;16.52;12.85;;;;;;;;;;4953297;28;20327;-76
2021/07/23 09:12:21;;;;;;;17.73;12.10;;;;;;;;;;4953622;28;20051;-77
2021/07/23 09:14:47;;;;;;;17.73;12.48;;;;;;;;;;4962169;28;20047;-76
2021/07/23 09:17:14;;;;;;;19.00;12.48;;;;;;;;;;4974333;28;20055;-76
2021/07/23 09:19:42;;;;;;;19.85;13.77;;;;;;;;;;4974270;28;20083;-76
2021/07/23 09:22:09;;;;;;;20.45;14.23;;;;;;;;;;4974506;28;20125;-76
2021/07/23 09:24:50;;;;;;;18.65;11.93;;;;;;;;;;4962219;28;20110;-76
2021/07/23 09:27:32;;;;;;;18.02;12.98;;;;;;;;;;4954663;28;20103;-77
2021/07/23 09:29:58;;;;;;;18.63;13.60;;;;;;;;;;4954025;28;20509;-76
2021/07/23 09:32:27;;;;;;;19.83;13.85;;;;;;;;;;4953783;28;20043;-76
2021/07/23 09:35:09;;;;;;;17.92;12.57;;;;;;;;;;4953301;28;20047;-76
2021/07/23 09:37:52;;;;;;;18.02;12.48;;;;;;;;;;4954720;28;20057;-76
2021/07/23 09:40:19;;;;;;;16.90;12.80;;;;;;;;;;4953575;28;20087;-76
2021/07/23 09:42:56;;;;;;;17.42;12.05;;;;;;;;;;4953185;28;20047;-76
2021/07/23 09:45:27;;;;;;;22.63;14.05;;;;;;;;;;4952869;28;20087;-76
2021/07/23 09:48:08;;;;;;;18.13;12.38;;;;;;;;;;4952994;28;20074;-76
2021/07/23 09:50:39;;;;;;;21.65;12.73;;;;;;;;;;4953580;28;20087;-76
2021/07/23 09:53:08;;;;;;;16.75;12.15;;;;;;;;;;4953221;28;20134;-76
2021/07/23 09:55:35;;;;;;;18.07;12.93;;;;;;;;;;4951028;28;20102;-76
2021/07/23 09:58:05;;;;;;;17.98;12.55;;;;;;;;;;4952807;29;20134;-77
2021/07/23 10:00:43;;;;;;;19.05;12.95;;;;;;;;;;4953080;29;20416;-76
2021/07/23 10:03:13;;;;;;;17.35;13.13;;;;;;;;;;4952908;28;20086;-76
2021/07/23 10:05:48;;;;;;;17.02;11.13;;;;;;;;;;4951315;28;20055;-76
2021/07/23 10:08:22;;;;;;;14.70;11.63;;;;;;;;;;4952097;28;20114;-76
2021/07/23 10:10:52;;;;;;;18.35;13.65;;;;;;;;;;4952461;28;20535;-77
2021/07/23 10:13:21;;;;;;;17.92;13.25;;;;;;;;;;4952581;28;20075;-77
2021/07/23 10:15:49;;;;;;;18.50;11.73;;;;;;;;;;4951194;29;20083;-77
2021/07/23 10:18:16;;;;;;;16.88;12.38;;;;;;;;;;4951998;29;20047;-77
2021/07/23 10:20:45;;;;;;;16.90;12.02;;;;;;;;;;4952151;29;20106;-77
2021/07/23 10:23:12;;;;;;;15.70;11.73;;;;;;;;;;4952258;29;20074;-76
2021/07/23 10:25:39;;;;;;;16.80;12.25;;;;;;;;;;4951336;29;20055;-76
2021/07/23 10:28:06;;;;;;;18.95;12.50;;;;;;;;;;4951923;29;20050;-76
2021/07/23 10:30:34;;;;;;;17.98;12.18;;;;;;;;;;4951934;29;20487;-76
2021/07/23 10:33:01;;;;;;;16.95;12.80;;;;;;;;;;4952128;29;20130;-77
2021/07/23 10:35:33;;;;;;;15.60;11.90;;;;;;;;;;4951617;29;20106;-77
2021/07/23 10:38:03;;;;;;;15.20;11.68;;;;;;;;;;4951949;29;20317;-77
2021/07/23 10:40:38;;;;;;;15.00;11.65;;;;;;;;;;4952136;29;20138;-77
2021/07/23 10:43:37;;;;;;;17.42;12.50;;;;;;;;;;4952086;29;20130;-77
2021/07/23 10:46:05;;;;;;;18.45;12.05;;;;;;;;;;4951441;29;20052;-77
2021/07/23 10:48:48;;;;;;;17.77;12.48;;;;;;;;;;4952108;29;20044;-77
2021/07/23 10:51:47;;;;;;;15.73;12.18;;;;;;;;;;4951868;29;20043;-76
2021/07/23 10:54:16;;;;;;;16.05;11.48;;;;;;;;;;4952651;29;20053;-77
2021/07/23 10:57:15;;;;;;;16.65;12.02;;;;;;;;;;4951485;29;20126;-77
2021/07/23 11:00:00;;;;;;;16.52;11.68;;;;;;;;;;4952203;29;20059;-77
2021/07/23 11:02:44;;;;;;;16.40;12.15;;;;;;;;;;4951918;29;20089;-76
2021/07/23 11:05:14;;;;;;;17.10;11.98;;;;;;;;;;4951475;28;20102;-77
2021/07/23 11:07:40;;;;;;;14.38;12.10;;;;;;;;;;4951681;28;20047;-77
2021/07/23 11:10:11;;;;;;;17.88;11.77;;;;;;;;;;4951961;29;20047;-76
2021/07/23 11:12:45;;;;;;;17.75;11.65;;;;;;;;;;4952172;28;20567;-76
2021/07/23 11:15:12;;;;;;;15.13;11.82;;;;;;;;;;4951049;29;20065;-76
2021/07/23 11:17:54;;;;;;;14.98;10.70;;;;;;;;;;4952981;28;20614;-78
2021/07/23 11:20:37;;;;;;;14.38;11.10;;;;;;;;;;4955118;29;20138;-76
2021/07/23 11:23:04;;;;;;;17.02;11.40;;;;;;;;;;4955905;29;20055;-77
2021/07/23 11:25:33;;;;;;;15.85;12.10;;;;;;;;;;4956112;29;20110;-77
2021/07/23 11:28:02;;;;;;;19.60;15.77;;;;;;;;;;4958828;29;20116;-78
2021/07/23 11:30:33;;;;;;;17.98;14.10;;;;;;;;;;4959619;29;20043;-78
2021/07/23 11:33:02;;;;;;;15.57;11.18;;;;;;;;;;4957494;29;20083;-77
2021/07/23 11:35:31;;;;;;;19.55;11.88;;;;;;;;;;4955385;29;20047;-76
2021/07/23 11:38:01;;;;;;;16.15;11.23;;;;;;;;;;4957281;29;20343;-77
2021/07/23 11:40:28;;;;;;;15.98;11.70;;;;;;;;;;4956059;29;20047;-76
2021/07/23 11:42:59;;;;;;;16.35;11.93;;;;;;;;;;4956102;29;20122;-76
2021/07/23 11:45:32;;;;;;;15.68;11.65;;;;;;;;;;4955064;29;20567;-76
2021/07/23 11:48:08;;;;;;;15.15;11.35;;;;;;;;;;4955970;29;20544;-78
2021/07/23 11:50:35;;;;;;;16.83;11.27;;;;;;;;;;4956966;29;20491;-78
2021/07/23 11:53:05;;;;;;;14.30;10.98;;;;;;;;;;4955439;29;20524;-76
2021/07/23 11:55:40;;;;;;;14.75;10.95;;;;;;;;;;4954689;29;20057;-77
2021/07/23 11:58:21;;;;;;;16.48;11.52;;;;;;;;;;4955108;29;20086;-77
2021/07/23 12:00:47;;;;;;;14.65;10.00;;;;;;;;;;4954827;29;20051;-77
2021/07/23 12:03:18;;;;;;;16.02;11.50;;;;;;;;;;4955739;28;20114;-77
2021/07/23 12:05:45;;;;;;;17.88;11.38;;;;;;;;;;4955122;28;20047;-77
2021/07/23 12:08:12;;;;;;;14.35;11.95;;;;;;;;;;4956089;29;20047;-77
2021/07/23 12:10:40;;;;;;;16.38;12.00;;;;;;;;;;4953193;29;20139;-78
2021/07/23 12:13:10;;;;;;;15.80;11.75;;;;;;;;;;4957066;29;20134;-77
2021/07/23 12:15:42;;;;;;;15.13;10.55;;;;;;;;;;4954382;29;20492;-77
2021/07/23 12:18:10;;;;;;;15.85;10.80;;;;;;;;;;4953979;29;20111;-77
2021/07/23 12:20:37;;;;;;;15.82;11.43;;;;;;;;;;4954321;28;20047;-77
2021/07/23 12:23:05;;;;;;;15.85;11.38;;;;;;;;;;4954396;29;20066;-77
2021/07/23 12:25:38;;;;;;;13.73;10.82;;;;;;;;;;4954499;28;20065;-77
2021/07/23 12:28:08;;;;;;;14.95;10.98;;;;;;;;;;4954759;29;20111;-77
2021/07/23 12:30:36;;;;;;;14.88;13.10;;;;;;;;;;4954672;28;20071;-77
2021/07/23 12:33:13;;;;;;;17.25;12.35;;;;;;;;;;4954440;28;20465;-76
2021/07/23 12:35:40;;;;;;;14.43;11.60;;;;;;;;;;4955905;29;20058;-77
2021/07/23 12:38:08;;;;;;;17.45;11.88;;;;;;;;;;4954571;29;20102;-77
2021/07/23 12:40:49;;;;;;;15.55;12.48;;;;;;;;;;4954309;29;20055;-77
2021/07/23 12:43:17;;;;;;;13.55;11.13;;;;;;;;;;4954764;29;20051;-77
2021/07/23 12:45:46;;;;;;;19.58;12.55;;;;;;;;;;4959447;28;20093;-81
2021/07/23 12:48:14;;;;;;;14.43;11.02;;;;;;;;;;4966520;29;20043;-79
2021/07/23 12:50:41;;;;;;;15.10;11.15;;;;;;;;;;4966653;29;20063;-78
2021/07/23 12:53:10;;;;;;;16.48;11.13;;;;;;;;;;4963880;29;20051;-82
2021/07/23 12:55:36;;;;;;;17.70;11.30;;;;;;;;;;4976061;29;20070;-78
2021/07/23 12:58:04;;;;;;;18.10;13.38;;;;;;;;;;4976572;28;20055;-78
2021/07/23 13:03:09;;;;;;;13.80;11.13;;;;;;;;;;4952005;28;20055;-77
2021/07/23 13:05:37;;;;;;;16.23;11.20;;;;;;;;;;4953935;29;20047;-77
2021/07/23 13:08:04;;;;;;;15.27;11.50;;;;;;;;;;4953881;29;20074;-76
2021/07/23 13:10:34;;;;;;;14.75;11.60;;;;;;;;;;4954229;28;20121;-77
2021/07/23 13:13:01;;;;;;;;;;;;;;;;;;4947822;29;20083;-77
2021/07/23 13:15:27;;;;;;;18.98;11.55;;;;;;;;;;4944052;29;20353;-77
2021/07/23 13:17:54;;;;;;;14.82;11.05;;;;;;;;;;4935467;29;20075;-76
2021/07/23 13:20:22;;;;;;;15.30;10.98;;;;;;;;;;4935040;29;20052;-77
2021/07/23 13:22:49;;;;;;;14.60;11.20;;;;;;;;;;4934774;29;20079;-78
2021/07/23 13:25:15;;;;;;;14.55;12.18;;;;;;;;;;4933890;29;20051;-77
2021/07/23 13:27:43;;;;;;;16.35;11.98;;;;;;;;;;4934867;29;20083;-77
2021/07/23 13:30:12;;;;;;;15.63;11.27;;;;;;;;;;4934241;29;20059;-76
2021/07/23 13:32:38;;;;;;;15.07;11.35;;;;;;;;;;4935049;29;20095;-76
2021/07/23 13:35:06;;;;;;;16.60;11.70;;;;;;;;;;4933339;29;20103;-77
2021/07/23 13:37:41;;;;;;;14.93;10.80;;;;;;;;;;4934274;29;20055;-77
2021/07/23 13:40:11;;;;;;;15.85;11.73;;;;;;;;;;4933952;29;20058;-77
2021/07/23 13:42:45;;;;;;;15.15;10.70;;;;;;;;;;4933090;29;20047;-77
2021/07/23 13:45:13;;;;;;;13.85;10.95;;;;;;;;;;4933582;29;20099;-77
2021/07/23 13:47:40;;;;;;;14.43;11.48;;;;;;;;;;4934537;29;20044;-76
2021/07/23 13:50:09;;;;;;;15.13;11.30;;;;;;;;;;4933747;29;20553;-76
2021/07/23 13:52:37;;;;;;;15.20;11.02;;;;;;;;;;4933681;29;20051;-77
2021/07/23 13:55:04;;;;;;;14.68;11.07;;;;;;;;;;4933320;29;20052;-77
2021/07/23 13:57:31;;;;;;;15.82;10.25;;;;;;;;;;4933764;29;20181;-76
2021/07/23 14:00:05;;;;;;;14.50;10.65;;;;;;;;;;4933747;29;20052;-76
2021/07/23 14:02:33;;;;;;;16.00;12.18;;;;;;;;;;4934096;29;20043;-77
2021/07/23 14:04:59;;;;;;;14.50;11.20;;;;;;;;;;4933666;29;20048;-76
2021/07/23 14:07:26;;;;;;;13.63;11.40;;;;;;;;;;4933348;29;20493;-76
2021/07/23 14:09:58;;;;;;;16.08;13.00;;;;;;;;;;4934354;29;20144;-78
2021/07/23 14:12:27;;;;;;;14.45;11.45;;;;;;;;;;4933498;29;20082;-78
2021/07/23 14:14:56;;;;;;;14.07;11.38;;;;;;;;;;4933740;29;20051;-77
2021/07/23 14:17:23;;;;;;;15.40;11.88;;;;;;;;;;4933879;29;20055;-77
2021/07/23 14:19:49;;;;;;;14.68;12.07;;;;;;;;;;4933479;29;20055;-77
2021/07/23 14:22:16;;;;;;;16.83;14.23;;;;;;;;;;4933515;29;20048;-77
2021/07/23 14:24:43;;;;;;;19.95;16.83;;;;;;;;;;4933671;29;20502;-78
2021/07/23 14:27:11;;;;;;;15.00;11.40;;;;;;;;;;4934132;29;20079;-78
2021/07/23 14:29:38;;;;;;;14.90;11.55;;;;;;;;;;4934619;29;20052;-77